createdAt,value
2023-04-27T00:00:13.495Z,4.90
2023-04-27T00:02:43.283Z,4.73
2023-04-27T00:05:13.419Z,4.80
2023-04-27T00:07:42.144Z,5.03
2023-04-27T00:10:11.315Z,4.83
2023-04-27T00:12:39.786Z,4.73
2023-04-27T00:15:09.711Z,5.10
2023-04-27T00:17:38.451Z,4.87
2023-04-27T00:20:11.996Z,5.23
2023-04-27T00:22:40.289Z,5.10
2023-04-27T00:25:09.144Z,5.03
2023-04-27T00:27:37.415Z,4.97
2023-04-27T00:30:06.751Z,5.07
2023-04-27T00:32:35.164Z,4.90
2023-04-27T00:35:03.419Z,4.70
2023-04-27T00:37:33.090Z,4.97
2023-04-27T00:40:01.368Z,4.90
2023-04-27T00:42:30.097Z,4.67
2023-04-27T00:44:59.118Z,5.23
2023-04-27T00:47:27.704Z,4.80
2023-04-27T00:49:56.056Z,5.37
2023-04-27T00:52:27.373Z,4.63
2023-04-27T00:54:58.983Z,5.20
2023-04-27T00:57:27.328Z,5.23
2023-04-27T00:59:55.695Z,4.93
2023-04-27T01:02:24.235Z,5.07
2023-04-27T01:04:53.494Z,4.77
2023-04-27T01:07:26.892Z,5.00
2023-04-27T01:09:56.734Z,5.07
2023-04-27T01:12:25.208Z,4.93
2023-04-27T01:14:53.520Z,5.33
2023-04-27T01:17:22.063Z,4.90
2023-04-27T01:19:51.552Z,5.00
2023-04-27T01:22:19.837Z,5.47
2023-04-27T01:24:52.863Z,5.37
2023-04-27T01:27:21.157Z,5.57
2023-04-27T01:29:49.722Z,4.60
2023-04-27T01:32:18.075Z,4.97
2023-04-27T01:34:46.415Z,5.20
2023-04-27T01:37:15.851Z,5.40
2023-04-27T01:39:44.766Z,4.93
2023-04-27T01:42:14.396Z,5.63
2023-04-27T01:44:42.693Z,6.30
2023-04-27T01:47:11.121Z,5.73
2023-04-27T01:49:39.476Z,5.87
2023-04-27T01:52:07.949Z,6.00
2023-04-27T01:54:36.355Z,5.33
2023-04-27T01:57:04.809Z,6.20
2023-04-27T01:59:36.099Z,6.10
2023-04-27T02:02:05.509Z,6.00
2023-04-27T02:04:34.074Z,6.10
2023-04-27T02:07:02.472Z,6.03
2023-04-27T02:09:30.753Z,5.70
2023-04-27T02:11:59.111Z,6.00
2023-04-27T02:14:27.513Z,6.23
2023-04-27T02:16:57.175Z,5.93
2023-04-27T02:19:25.431Z,6.93
2023-04-27T02:21:53.806Z,6.50
2023-04-27T02:24:22.063Z,6.67
2023-04-27T02:26:50.567Z,6.60
2023-04-27T02:29:19.992Z,7.03
2023-04-27T02:31:48.693Z,6.33
2023-04-27T02:34:18.095Z,6.43
2023-04-27T02:36:46.128Z,6.97
2023-04-27T02:39:14.389Z,6.40
2023-04-27T02:41:42.620Z,7.13
2023-04-27T02:44:10.713Z,6.33
2023-04-27T02:46:38.840Z,6.30
2023-04-27T02:49:08.112Z,6.33
2023-04-27T02:51:37.515Z,6.67
2023-04-27T02:54:05.884Z,6.53
2023-04-27T02:56:33.910Z,6.40
2023-04-27T02:59:02.083Z,6.60
2023-04-27T03:01:30.238Z,6.93
2023-04-27T03:03:58.483Z,6.17
2023-04-27T03:06:27.711Z,6.70
2023-04-27T03:08:57.176Z,6.03
2023-04-27T03:11:25.253Z,6.83
2023-04-27T03:13:54.044Z,6.40
2023-04-27T03:16:22.110Z,5.90
2023-04-27T03:18:50.173Z,6.57
2023-04-27T03:21:18.230Z,6.10
2023-04-27T03:23:46.330Z,6.37
2023-04-27T03:26:16.069Z,6.43
2023-04-27T03:28:44.151Z,6.20
2023-04-27T03:31:13.301Z,6.33
2023-04-27T03:33:42.529Z,6.30
2023-04-27T03:36:11.738Z,7.00
2023-04-27T03:38:42.917Z,5.80
2023-04-27T03:41:11.711Z,6.80
2023-04-27T03:43:41.153Z,6.67
2023-04-27T03:46:09.860Z,6.27
2023-04-27T03:48:38.697Z,6.90
2023-04-27T03:51:07.350Z,6.70
2023-04-27T03:53:35.789Z,6.07
2023-04-27T03:56:04.346Z,6.80
2023-04-27T03:58:32.503Z,6.43
2023-04-27T04:01:11.827Z,7.30
2023-04-27T04:03:40.335Z,6.47
2023-04-27T04:06:09.988Z,6.00
2023-04-27T04:08:38.255Z,6.70
2023-04-27T04:11:06.480Z,6.93
2023-04-27T04:13:36.689Z,6.87
2023-04-27T04:16:06.568Z,7.40
2023-04-27T04:18:36.970Z,6.87
2023-04-27T04:21:06.389Z,7.00
2023-04-27T04:23:34.462Z,7.67
2023-04-27T04:26:03.069Z,7.93
2023-04-27T04:28:35.017Z,7.77
2023-04-27T04:31:05.665Z,7.60
2023-04-27T04:33:34.257Z,8.20
2023-04-27T04:36:06.670Z,7.10
2023-04-27T04:38:35.498Z,7.77
2023-04-27T04:41:03.662Z,7.40
2023-04-27T04:43:34.409Z,8.47
2023-04-27T04:46:06.471Z,8.80
2023-04-27T04:48:35.599Z,8.30
2023-04-27T04:51:06.048Z,8.30
2023-04-27T04:53:34.823Z,8.43
2023-04-27T04:56:10.782Z,7.53
2023-04-27T04:58:39.024Z,8.63
2023-04-27T05:01:07.512Z,7.47
2023-04-27T05:03:35.797Z,7.93
2023-04-27T05:06:03.924Z,7.77
2023-04-27T05:08:33.382Z,8.77
2023-04-27T05:11:01.438Z,7.80
2023-04-27T05:13:29.652Z,8.23
2023-04-27T05:15:57.711Z,8.43
2023-04-27T05:18:25.827Z,8.67
2023-04-27T05:20:53.831Z,8.40
2023-04-27T05:23:21.848Z,8.40
2023-04-27T05:25:51.728Z,8.97
2023-04-27T05:28:19.897Z,8.73
2023-04-27T05:30:47.995Z,8.93
2023-04-27T05:33:16.129Z,9.00
2023-04-27T05:35:44.195Z,9.20
2023-04-27T05:38:15.113Z,9.47
2023-04-27T05:40:43.150Z,9.17
2023-04-27T05:43:12.631Z,10.03
2023-04-27T05:45:41.817Z,9.60
2023-04-27T05:48:10.024Z,9.23
2023-04-27T05:50:38.092Z,9.93
2023-04-27T05:53:06.165Z,9.37
2023-04-27T05:55:34.188Z,10.27
2023-04-27T05:58:08.389Z,9.40
2023-04-27T06:00:38.851Z,10.13
2023-04-27T06:03:07.251Z,9.53
2023-04-27T06:05:35.632Z,9.37
2023-04-27T06:08:03.763Z,8.97
2023-04-27T06:10:31.847Z,8.73
2023-04-27T06:12:59.890Z,8.80
2023-04-27T06:15:27.986Z,8.90
2023-04-27T06:17:57.500Z,8.93
2023-04-27T06:20:25.897Z,8.00
2023-04-27T06:22:53.914Z,8.33
2023-04-27T06:25:22.825Z,8.20
2023-04-27T06:27:52.418Z,8.20
2023-04-27T06:30:20.520Z,8.03
2023-04-27T06:32:48.638Z,9.17
2023-04-27T06:35:18.375Z,8.73
2023-04-27T06:37:47.291Z,8.17
2023-04-27T06:40:15.486Z,7.87
2023-04-27T06:42:43.521Z,7.93
2023-04-27T06:45:12.436Z,8.27
2023-04-27T06:47:40.521Z,6.53
2023-04-27T06:50:09.667Z,6.37
2023-04-27T06:52:39.057Z,6.63
2023-04-27T06:55:08.013Z,6.17
2023-04-27T06:57:36.418Z,5.90
2023-04-27T07:00:05.118Z,6.00
2023-04-27T07:02:33.262Z,7.00
2023-04-27T07:05:01.420Z,6.27
2023-04-27T07:07:29.523Z,5.70
2023-04-27T07:09:59.133Z,6.63
2023-04-27T07:12:27.183Z,5.50
2023-04-27T07:14:55.750Z,5.78
2023-04-27T07:17:23.822Z,6.80
2023-04-27T07:19:51.875Z,6.00
2023-04-27T07:22:20.142Z,6.25
2023-04-27T07:24:48.420Z,5.75
2023-04-27T07:27:18.319Z,6.13
2023-04-27T07:29:46.392Z,6.20
2023-04-27T07:32:14.960Z,6.63
2023-04-27T07:34:52.701Z,6.00
2023-04-27T07:37:22.468Z,6.43
2023-04-27T07:39:52.004Z,6.53
2023-04-27T07:42:23.662Z,6.20
2023-04-27T07:44:52.372Z,6.00
2023-04-27T07:47:20.589Z,6.15
2023-04-27T07:49:48.651Z,6.20
2023-04-27T07:52:16.804Z,6.28
2023-04-27T07:54:44.897Z,6.75
2023-04-27T07:57:12.991Z,6.07
2023-04-27T07:59:42.392Z,5.05
2023-04-27T08:02:18.315Z,5.05
2023-04-27T08:04:48.792Z,5.88
2023-04-27T08:07:19.288Z,5.28
2023-04-27T08:09:47.943Z,5.03
2023-04-27T08:12:16.013Z,5.15
2023-04-27T08:14:45.421Z,4.95
2023-04-27T08:17:13.551Z,4.78
2023-04-27T08:19:42.238Z,5.05
2023-04-27T08:22:10.518Z,4.72
2023-04-27T08:24:38.583Z,4.43
2023-04-27T08:27:07.301Z,4.40
2023-04-27T08:29:35.444Z,4.32
2023-04-27T08:32:05.757Z,4.32
2023-04-27T08:34:33.786Z,4.30
2023-04-27T08:37:03.317Z,4.22
2023-04-27T08:39:31.321Z,4.57
2023-04-27T08:41:59.390Z,4.70
2023-04-27T08:44:27.505Z,4.75
2023-04-27T08:46:55.548Z,4.93
2023-04-27T08:49:24.934Z,4.60
2023-04-27T08:51:52.999Z,4.65
2023-04-27T08:54:21.894Z,4.68
2023-04-27T08:56:49.959Z,4.25
2023-04-27T08:59:18.556Z,4.80
2023-04-27T09:01:48.646Z,4.55
2023-04-27T09:04:17.899Z,4.68
2023-04-27T09:06:49.076Z,4.75
2023-04-27T09:09:24.508Z,4.60
2023-04-27T09:11:52.556Z,4.30
2023-04-27T09:14:21.881Z,4.80
2023-04-27T09:16:57.381Z,4.10
2023-04-27T09:19:26.528Z,4.60
2023-04-27T09:22:10.811Z,4.30
2023-04-27T09:24:39.295Z,4.10
2023-04-27T09:27:20.160Z,4.40
2023-04-27T09:29:48.237Z,4.32
2023-04-27T09:32:17.916Z,4.60
2023-04-27T09:34:46.469Z,3.90
2023-04-27T09:37:16.636Z,4.18
2023-04-27T09:39:46.164Z,3.97
2023-04-27T09:42:15.923Z,4.25
2023-04-27T09:44:44.026Z,4.50
2023-04-27T09:47:14.662Z,4.30
2023-04-27T09:49:42.914Z,4.47
2023-04-27T09:52:11.643Z,4.63
2023-04-27T09:54:42.207Z,4.43
2023-04-27T09:57:32.264Z,4.05
2023-04-27T10:00:11.154Z,4.95
2023-04-27T10:02:53.620Z,4.20
2023-04-27T10:05:44.953Z,4.70
2023-04-27T10:08:13.220Z,4.50
2023-04-27T10:10:49.575Z,5.07
2023-04-27T10:13:24.939Z,4.45
2023-04-27T10:15:53.191Z,5.43
2023-04-27T10:18:28.823Z,5.50
2023-04-27T10:20:57.018Z,5.60
2023-04-27T10:23:26.584Z,5.05
2023-04-27T10:25:57.325Z,5.57
2023-04-27T10:28:25.414Z,5.25
2023-04-27T10:30:53.617Z,5.22
2023-04-27T10:33:24.193Z,5.47
2023-04-27T10:35:56.958Z,5.57
2023-04-27T10:38:29.836Z,5.10
2023-04-27T10:41:01.901Z,5.30
2023-04-27T10:43:31.321Z,5.60
2023-04-27T10:46:09.304Z,5.68
2023-04-27T10:48:37.472Z,5.60
2023-04-27T10:51:06.487Z,5.65
2023-04-27T10:53:38.745Z,5.85
2023-04-27T10:56:08.687Z,5.70
2023-04-27T11:01:10.160Z,5.20
2023-04-27T11:03:39.066Z,5.53
2023-04-27T11:06:08.794Z,5.55
2023-04-27T11:08:45.503Z,5.50
2023-04-27T11:11:18.250Z,5.63
2023-04-27T11:13:49.422Z,5.75
2023-04-27T11:16:19.454Z,5.68
2023-04-27T11:18:47.578Z,5.55
2023-04-27T11:21:17.304Z,5.70
2023-04-27T11:23:45.549Z,5.60
2023-04-27T11:26:14.907Z,6.20
2023-04-27T11:28:45.776Z,5.63
2023-04-27T11:31:14.072Z,5.72
2023-04-27T11:33:49.425Z,5.35
2023-04-27T11:36:18.445Z,6.25
2023-04-27T11:38:47.613Z,5.85
2023-04-27T11:41:19.604Z,4.93
2023-04-27T11:43:49.970Z,5.35
2023-04-27T11:46:23.687Z,5.43
2023-04-27T11:48:51.941Z,5.22
2023-04-27T11:51:20.521Z,5.80
2023-04-27T11:53:51.329Z,5.05
2023-04-27T11:56:19.503Z,5.10
2023-04-27T11:58:49.168Z,5.53
2023-04-27T12:01:24.851Z,5.50
2023-04-27T12:04:03.475Z,5.13
2023-04-27T12:06:33.873Z,5.30
2023-04-27T12:09:02.292Z,5.65
2023-04-27T12:11:30.467Z,5.07
2023-04-27T12:13:59.930Z,5.47
2023-04-27T12:16:28.420Z,5.63
2023-04-27T12:18:56.533Z,5.32
2023-04-27T12:21:24.617Z,5.85
2023-04-27T12:23:53.002Z,5.05
2023-04-27T12:26:21.570Z,5.43
2023-04-27T12:28:49.648Z,5.18
2023-04-27T12:31:24.720Z,5.97
2023-04-27T12:33:54.170Z,5.50
2023-04-27T12:36:22.187Z,5.05
2023-04-27T12:38:50.261Z,4.90
2023-04-27T12:41:18.563Z,5.18
2023-04-27T12:43:46.850Z,5.28
2023-04-27T12:46:14.913Z,5.13
2023-04-27T12:48:45.100Z,5.03
2023-04-27T12:51:13.651Z,5.40
2023-04-27T12:53:41.974Z,5.28
2023-04-27T12:56:10.100Z,5.35
2023-04-27T12:58:38.127Z,5.13
2023-04-27T13:01:07.777Z,5.00
2023-04-27T13:03:36.617Z,4.93
2023-04-27T13:06:09.466Z,5.10
2023-04-27T13:08:39.120Z,5.05
2023-04-27T13:11:07.261Z,5.50
2023-04-27T13:13:35.871Z,5.22
2023-04-27T13:16:04.375Z,4.78
2023-04-27T13:18:34.924Z,5.10
2023-04-27T13:21:04.107Z,4.70
2023-04-27T13:23:33.704Z,5.07
2023-04-27T13:26:02.280Z,4.78
2023-04-27T13:28:30.331Z,4.50
2023-04-27T13:31:00.110Z,5.40
2023-04-27T13:33:28.456Z,5.15
2023-04-27T13:35:56.586Z,5.28
2023-04-27T13:38:24.744Z,5.32
2023-04-27T13:40:54.937Z,4.93
2023-04-27T13:43:23.020Z,5.88
2023-04-27T13:45:52.572Z,6.10
2023-04-27T13:48:20.710Z,5.32
2023-04-27T13:50:48.963Z,5.35
2023-04-27T13:53:17.347Z,5.40
2023-04-27T13:55:45.822Z,5.28
2023-04-27T13:58:15.226Z,5.30
2023-04-27T14:00:43.306Z,4.60
2023-04-27T14:03:12.026Z,5.13
2023-04-27T14:05:40.328Z,5.40
2023-04-27T14:08:08.319Z,5.32
2023-04-27T14:10:37.618Z,4.50
2023-04-27T14:13:06.055Z,4.88
2023-04-27T14:15:37.358Z,5.07
2023-04-27T14:18:07.721Z,4.97
2023-04-27T14:20:36.402Z,5.22
2023-04-27T14:23:05.267Z,4.97
2023-04-27T14:25:34.578Z,5.40
2023-04-27T14:28:03.957Z,4.90
2023-04-27T14:30:32.769Z,4.88
2023-04-27T14:33:02.374Z,4.70
2023-04-27T14:35:30.557Z,4.60
2023-04-27T14:38:02.340Z,5.38
2023-04-27T14:40:30.710Z,4.88
2023-04-27T14:42:59.452Z,5.15
2023-04-27T14:45:36.665Z,5.78
2023-04-27T14:48:13.459Z,5.25
2023-04-27T14:50:43.451Z,5.55
2023-04-27T14:53:11.658Z,5.63
2023-04-27T14:55:41.148Z,5.70
2023-04-27T14:58:09.309Z,5.38
2023-04-27T15:00:37.313Z,6.25
2023-04-27T15:03:05.721Z,5.65
2023-04-27T15:05:35.267Z,5.55
2023-04-27T15:08:03.796Z,5.50
2023-04-27T15:10:32.004Z,6.03
2023-04-27T15:12:59.996Z,5.32
2023-04-27T15:15:28.036Z,5.90
2023-04-27T15:17:56.115Z,6.65
2023-04-27T15:20:24.377Z,5.75
2023-04-27T15:22:53.828Z,5.63
2023-04-27T15:25:25.096Z,5.95
2023-04-27T15:27:53.112Z,5.70
2023-04-27T15:30:21.110Z,6.10
2023-04-27T15:32:49.558Z,5.88
2023-04-27T15:35:17.846Z,6.43
2023-04-27T15:37:45.952Z,5.72
2023-04-27T15:40:15.421Z,5.63
2023-04-27T15:42:43.434Z,5.95
2023-04-27T15:45:11.960Z,6.18
2023-04-27T15:47:40.056Z,6.32
2023-04-27T15:50:09.499Z,6.70
2023-04-27T15:52:37.730Z,6.63
2023-04-27T15:55:06.765Z,6.55
2023-04-27T15:57:36.234Z,6.13
2023-04-27T16:00:08.268Z,6.43
2023-04-27T16:02:38.786Z,6.28
2023-04-27T16:05:08.602Z,6.50
2023-04-27T16:07:39.484Z,6.50
2023-04-27T16:10:09.224Z,6.25
2023-04-27T16:12:38.896Z,6.18
2023-04-27T16:15:10.757Z,6.72
2023-04-27T16:17:40.060Z,5.95
2023-04-27T16:20:09.647Z,6.30
2023-04-27T16:22:38.283Z,6.05
2023-04-27T16:25:12.463Z,6.38
2023-04-27T16:27:42.584Z,6.35
2023-04-27T16:30:11.124Z,6.55
2023-04-27T16:32:39.233Z,5.95
2023-04-27T16:35:08.457Z,5.97
2023-04-27T16:37:36.566Z,6.13
2023-04-27T16:40:07.063Z,6.13
2023-04-27T16:42:35.538Z,5.75
2023-04-27T16:45:06.778Z,5.93
2023-04-27T16:47:36.652Z,6.15
2023-04-27T16:50:05.318Z,6.00
2023-04-27T16:52:33.483Z,5.80
2023-04-27T16:55:01.758Z,5.30
2023-04-27T16:57:29.990Z,5.28
2023-04-27T16:59:58.112Z,4.72
2023-04-27T17:02:27.903Z,5.50
2023-04-27T17:04:56.239Z,5.10
2023-04-27T17:07:25.534Z,5.68
2023-04-27T17:09:54.429Z,5.40
2023-04-27T17:12:22.716Z,4.60
2023-04-27T17:14:51.140Z,4.90
2023-04-27T17:17:20.048Z,5.30
2023-04-27T17:19:49.467Z,5.25
2023-04-27T17:22:17.582Z,4.90
2023-04-27T17:24:45.800Z,4.93
2023-04-27T17:27:13.871Z,5.03
2023-04-27T17:29:41.922Z,5.38
2023-04-27T17:32:10.444Z,5.20
2023-04-27T17:54:08.566Z,5.45
2023-04-27T17:56:36.677Z,5.22
2023-04-27T17:59:04.832Z,5.57
2023-04-27T18:01:33.242Z,5.53
2023-04-27T18:04:04.021Z,5.90
2023-04-27T18:06:33.901Z,6.07
2023-04-27T18:09:02.132Z,5.35
2023-04-27T18:11:31.586Z,6.07
2023-04-27T18:13:59.646Z,6.30
2023-04-27T18:16:27.837Z,5.75
2023-04-27T18:18:55.979Z,6.50
2023-04-27T18:21:26.718Z,6.00
2023-04-27T18:23:54.819Z,5.68
2023-04-27T18:26:23.071Z,6.30
2023-04-27T18:28:52.556Z,6.15
2023-04-27T18:31:21.277Z,6.10
2023-04-27T18:33:49.364Z,6.45
2023-04-27T18:36:17.439Z,6.10
2023-04-27T18:38:45.511Z,5.53
2023-04-27T18:41:13.552Z,6.22
2023-04-27T18:43:41.596Z,6.22
2023-04-27T18:46:11.015Z,6.75
2023-04-27T18:48:39.117Z,6.68
2023-04-27T18:51:07.225Z,6.55
2023-04-27T18:53:35.440Z,6.68
2023-04-27T18:56:03.510Z,6.78
2023-04-27T18:58:31.625Z,7.20
2023-04-27T19:00:59.711Z,7.22
2023-04-27T19:03:29.302Z,7.88
2023-04-27T19:05:58.751Z,7.93
2023-04-27T19:08:26.843Z,7.53
2023-04-27T19:10:54.901Z,8.02
2023-04-27T19:13:22.949Z,8.00
2023-04-27T19:15:51.541Z,8.07
2023-04-27T19:18:19.707Z,7.93
2023-04-27T19:20:49.931Z,7.70
2023-04-27T19:23:19.221Z,8.05
2023-04-27T19:25:48.325Z,7.78
2023-04-27T19:28:18.792Z,8.55
2023-04-27T19:30:47.696Z,7.97
2023-04-27T19:33:20.500Z,8.20
2023-04-27T19:35:52.364Z,7.75
2023-04-27T19:38:22.473Z,7.97
2023-04-27T19:40:50.577Z,7.85
2023-04-27T19:43:19.762Z,6.85
2023-04-27T19:45:49.168Z,7.88
2023-04-27T19:48:17.556Z,7.53
2023-04-27T19:50:45.816Z,7.47
2023-04-27T19:53:16.102Z,7.20
2023-04-27T19:55:44.318Z,7.60
2023-04-27T19:58:12.426Z,7.85
2023-04-27T20:00:40.622Z,7.22
2023-04-27T20:03:09.036Z,7.30
2023-04-27T20:05:38.543Z,8.15
2023-04-27T20:08:07.874Z,7.60
2023-04-27T20:10:37.761Z,8.15
2023-04-27T20:13:06.087Z,7.90
2023-04-27T20:18:38.094Z,7.50
2023-04-27T20:21:06.345Z,7.38
2023-04-27T20:23:34.586Z,7.70
2023-04-27T20:26:04.595Z,7.25
2023-04-27T20:28:32.639Z,7.55
2023-04-27T20:31:00.725Z,7.00
2023-04-27T20:33:28.822Z,7.65
2023-04-27T20:36:03.685Z,6.57
2023-04-27T20:38:38.376Z,6.43
2023-04-27T20:41:08.673Z,6.55
2023-04-27T20:43:39.140Z,6.95
2023-04-27T20:46:07.737Z,7.22
2023-04-27T20:48:36.245Z,6.28
2023-04-27T20:51:04.567Z,6.15
2023-04-27T20:53:32.589Z,6.13
2023-04-27T20:56:00.674Z,5.20
2023-04-27T20:58:30.083Z,6.07
2023-04-27T21:00:58.202Z,5.30
2023-04-27T21:03:26.409Z,5.63
2023-04-27T21:05:54.682Z,5.28
2023-04-27T21:08:22.724Z,5.85
2023-04-27T21:10:53.940Z,6.05
2023-04-27T21:13:22.056Z,6.10
2023-04-27T21:15:51.437Z,6.10
2023-04-27T21:18:29.603Z,5.82
2023-04-27T21:20:58.158Z,6.13
2023-04-27T21:23:26.311Z,6.10
2023-04-27T21:25:54.335Z,5.78
2023-04-27T21:28:22.414Z,6.20
2023-04-27T21:30:51.902Z,6.32
2023-04-27T21:33:20.120Z,6.30
2023-04-27T21:35:48.161Z,6.60
2023-04-27T21:38:16.209Z,6.32
2023-04-27T21:40:44.268Z,5.75
2023-04-27T21:43:12.337Z,6.15
2023-04-27T21:45:40.474Z,5.97
2023-04-27T21:48:10.397Z,6.75
2023-04-27T21:50:38.520Z,6.13
2023-04-27T21:53:06.603Z,6.00
2023-04-27T21:55:34.616Z,6.55
2023-04-27T21:58:02.663Z,5.82
2023-04-27T22:00:30.695Z,6.35
2023-04-27T22:02:58.950Z,6.75
2023-04-27T22:05:29.324Z,6.65
2023-04-27T22:07:58.154Z,6.63
2023-04-27T22:10:26.244Z,6.80
2023-04-27T22:12:54.789Z,6.40
2023-04-27T22:15:23.133Z,7.05
2023-04-27T22:17:51.290Z,6.47
2023-04-27T22:20:19.642Z,6.88
2023-04-27T22:22:49.112Z,6.78
2023-04-27T22:25:17.260Z,6.95
2023-04-27T22:27:45.755Z,6.93
2023-04-27T22:30:15.483Z,6.65
2023-04-27T22:32:43.620Z,7.47
2023-04-27T22:35:24.731Z,6.82
2023-04-27T22:37:55.870Z,7.28
2023-04-27T22:40:24.516Z,7.10
2023-04-27T22:42:52.752Z,7.18
2023-04-27T22:45:20.786Z,7.40
2023-04-27T22:47:49.517Z,7.57
2023-04-27T22:50:17.907Z,7.43
2023-04-27T22:52:46.078Z,7.50
2023-04-27T22:55:15.538Z,7.28
2023-04-27T22:57:44.844Z,7.40
2023-04-27T23:00:13.740Z,7.13
2023-04-27T23:02:42.693Z,7.40
2023-04-27T23:05:12.418Z,6.78
2023-04-27T23:07:42.828Z,8.10
2023-04-27T23:10:13.006Z,8.00
2023-04-27T23:12:42.454Z,8.18
2023-04-27T23:15:11.163Z,8.52
2023-04-27T23:17:39.264Z,8.10
2023-04-27T23:20:24.104Z,8.00
2023-04-27T23:22:55.177Z,8.02
2023-04-27T23:25:23.333Z,8.45
2023-04-27T23:27:53.146Z,8.02
2023-04-27T23:30:21.992Z,8.18
2023-04-27T23:32:50.270Z,8.77
2023-04-27T23:35:18.499Z,8.48
2023-04-27T23:37:46.521Z,9.07
2023-04-27T23:40:14.608Z,8.80
2023-04-27T23:42:42.626Z,8.90
2023-04-27T23:45:12.715Z,9.07
2023-04-27T23:47:40.964Z,8.83
2023-04-27T23:50:09.783Z,9.27
2023-04-27T23:52:37.867Z,9.00
2023-04-27T23:55:07.127Z,9.07
2023-04-27T23:57:35.190Z,8.70
